createdAt,value
2016-06-09T00:00:50.407Z,21.07
2016-06-09T00:01:50.442Z,21.14
2016-06-09T00:02:50.320Z,21.09
2016-06-09T00:03:50.698Z,21.16
2016-06-09T00:04:50.514Z,21.16
2016-06-09T00:05:50.548Z,21.16
2016-06-09T00:06:50.567Z,21.12
2016-06-09T00:07:50.585Z,21.12
2016-06-09T00:08:50.621Z,21.17
2016-06-09T00:09:50.701Z,21.22
2016-06-09T00:10:50.674Z,21.07
2016-06-09T00:11:50.722Z,21.13
2016-06-09T00:12:50.757Z,21.12
2016-06-09T00:13:50.744Z,21.16
2016-06-09T00:14:50.778Z,21.13
2016-06-09T00:15:50.797Z,21.09
2016-06-09T00:16:50.831Z,21.09
2016-06-09T00:17:50.882Z,21.1
2016-06-09T00:18:50.900Z,21.12
2016-06-09T00:19:51.888Z,21.04
2016-06-09T00:20:50.938Z,20.97
2016-06-09T00:21:50.957Z,21.12
2016-06-09T00:22:50.991Z,21.06
2016-06-09T00:23:51.026Z,20.98
2016-06-09T00:24:51.059Z,20.98
2016-06-09T00:25:51.062Z,21.04
2016-06-09T00:26:51.113Z,21.09
2016-06-09T00:27:51.116Z,21.13
2016-06-09T00:28:51.150Z,21.09
2016-06-09T00:29:51.168Z,21.17
2016-06-09T00:30:51.203Z,21.13
2016-06-09T00:31:51.238Z,21.07
2016-06-09T00:32:52.116Z,21.01
2016-06-09T00:33:51.290Z,21.01
2016-06-09T00:34:51.309Z,21.06
2016-06-09T00:35:51.329Z,21.01
2016-06-09T00:36:51.362Z,21.07
2016-06-09T00:37:51.381Z,21.1
2016-06-09T00:38:51.416Z,21.13
2016-06-09T00:39:51.449Z,21.03
2016-06-09T00:40:51.468Z,20.99
2016-06-09T00:41:51.487Z,21.07
2016-06-09T00:42:51.522Z,21.01
2016-06-09T00:43:51.539Z,20.97
2016-06-09T00:44:51.574Z,20.97
2016-06-09T00:45:51.592Z,20.97
2016-06-09T00:46:51.627Z,21.03
2016-06-09T00:47:51.646Z,21.01
2016-06-09T00:48:51.774Z,21.04
2016-06-09T00:49:51.543Z,21.06
2016-06-09T00:50:51.717Z,21.03
2016-06-09T00:51:51.753Z,21.09
2016-06-09T00:52:51.770Z,20.95
2016-06-09T00:53:51.806Z,20.92
2016-06-09T00:54:51.684Z,20.94
2016-06-09T00:55:51.857Z,20.95
2016-06-09T00:56:51.892Z,20.95
2016-06-09T00:57:51.911Z,21.01
2016-06-09T00:58:51.946Z,20.95
2016-06-09T00:59:51.964Z,20.99
2016-06-09T01:00:51.998Z,20.91
2016-06-09T01:01:52.017Z,20.97
2016-06-09T01:02:52.036Z,20.99
2016-06-09T01:03:52.117Z,21.07
2016-06-09T01:04:52.104Z,21.04
2016-06-09T01:05:51.968Z,21.01
2016-06-09T01:06:52.157Z,20.99
2016-06-09T01:07:52.191Z,21.03
2016-06-09T01:08:52.210Z,21.01
2016-06-09T01:09:52.245Z,20.94
2016-06-09T01:10:52.248Z,20.97
2016-06-09T01:11:52.298Z,20.94
2016-06-09T01:12:52.301Z,20.89
2016-06-09T01:13:52.335Z,20.84
2016-06-09T01:14:52.354Z,20.88
2016-06-09T01:15:52.388Z,20.87
2016-06-09T01:16:52.407Z,20.87
2016-06-09T01:17:52.441Z,20.92
2016-06-09T01:18:52.476Z,20.95
2016-06-09T01:19:52.494Z,20.85
2016-06-09T01:20:52.513Z,20.94
2016-06-09T01:21:52.548Z,20.95
2016-06-09T01:22:52.566Z,20.95
2016-06-09T01:23:52.615Z,21.09
2016-06-09T01:24:52.619Z,20.99
2016-06-09T01:25:52.654Z,20.95
2016-06-09T01:26:52.672Z,20.89
2016-06-09T01:27:52.690Z,20.97
2016-06-09T01:28:52.725Z,20.95
2016-06-09T01:29:52.776Z,21.06
2016-06-09T01:30:52.778Z,20.97
2016-06-09T01:31:52.797Z,20.94
2016-06-09T01:32:52.831Z,20.91
2016-06-09T01:33:53.132Z,20.91
2016-06-09T01:34:52.884Z,20.87
2016-06-09T01:35:52.902Z,20.88
2016-06-09T01:36:52.953Z,20.85
2016-06-09T01:37:52.955Z,20.85
2016-06-09T01:38:52.990Z,20.92
2016-06-09T01:39:53.009Z,20.88
2016-06-09T01:40:53.043Z,20.91
2016-06-09T01:41:53.078Z,20.87
2016-06-09T01:42:53.096Z,20.87
2016-06-09T01:43:53.115Z,20.84
2016-06-09T01:44:53.149Z,20.74
2016-06-09T01:45:53.169Z,20.85
2016-06-09T01:46:53.202Z,20.79
2016-06-09T01:47:53.222Z,20.73
2016-06-09T01:48:53.803Z,20.84
2016-06-09T01:49:53.274Z,20.79
2016-06-09T01:50:53.293Z,20.88
2016-06-09T01:51:53.327Z,20.87
2016-06-09T01:52:53.346Z,20.79
2016-06-09T01:53:53.380Z,20.91
2016-06-09T01:54:53.398Z,20.87
2016-06-09T01:55:53.433Z,20.92
2016-06-09T01:56:53.452Z,20.88
2016-06-09T01:57:53.502Z,20.77
2016-06-09T01:58:53.520Z,20.76
2016-06-09T01:59:53.540Z,20.79
2016-06-09T02:00:53.401Z,20.76
2016-06-09T02:01:53.592Z,20.76
2016-06-09T02:02:53.611Z,20.92
2016-06-09T02:03:53.646Z,20.91
2016-06-09T02:04:53.727Z,20.85
2016-06-09T02:05:53.683Z,20.88
2016-06-09T02:06:53.717Z,20.79
2016-06-09T02:07:53.751Z,20.91
2016-06-09T02:08:53.770Z,20.89
2016-06-09T02:09:53.648Z,20.77
2016-06-09T02:10:53.823Z,20.77
2016-06-09T02:11:53.857Z,20.84
2016-06-09T02:12:53.876Z,20.85
2016-06-09T02:13:53.895Z,20.85
2016-06-09T02:14:53.929Z,20.77
2016-06-09T02:15:53.964Z,20.74
2016-06-09T02:16:53.982Z,20.77
2016-06-09T02:17:54.001Z,20.69
2016-06-09T02:18:54.159Z,20.69
2016-06-09T02:19:54.054Z,20.72
2016-06-09T02:20:54.088Z,20.76
2016-06-09T02:21:54.121Z,20.74
2016-06-09T02:22:54.141Z,20.8
2016-06-09T02:23:54.160Z,20.77
2016-06-09T02:24:54.194Z,20.73
2016-06-09T02:25:54.228Z,20.79
2016-06-09T02:26:54.247Z,20.76
2016-06-09T02:27:54.265Z,20.79
2016-06-09T02:28:54.285Z,20.77
2016-06-09T02:29:54.319Z,20.88
2016-06-09T02:30:54.338Z,20.85
2016-06-09T02:31:54.388Z,20.84
2016-06-09T02:32:54.391Z,20.8
2016-06-09T02:33:54.425Z,20.87
2016-06-09T02:34:54.459Z,20.89
2016-06-09T02:35:54.478Z,20.87
2016-06-09T02:36:54.497Z,20.92
2016-06-09T02:37:54.531Z,20.92
2016-06-09T02:38:54.566Z,20.91
2016-06-09T02:39:54.584Z,20.89
2016-06-09T02:40:54.602Z,20.88
2016-06-09T02:41:54.638Z,20.92
2016-06-09T02:42:54.656Z,20.95
2016-06-09T02:43:54.689Z,20.94
2016-06-09T02:44:54.725Z,20.97
2016-06-09T02:45:54.727Z,20.98
2016-06-09T02:46:54.762Z,20.89
2016-06-09T02:47:54.796Z,20.82
2016-06-09T02:48:54.986Z,20.89
2016-06-09T02:49:54.943Z,20.91
2016-06-09T02:50:54.868Z,20.88
2016-06-09T02:51:54.886Z,20.91
2016-06-09T02:52:54.921Z,20.85
2016-06-09T02:53:54.939Z,20.87
2016-06-09T02:54:54.973Z,20.94
2016-06-09T02:55:54.993Z,20.94
2016-06-09T02:56:55.026Z,20.89
2016-06-09T02:57:55.061Z,20.88
2016-06-09T02:58:55.080Z,20.89
2016-06-09T02:59:55.114Z,20.85
2016-06-09T03:00:55.116Z,20.84
2016-06-09T03:01:55.167Z,20.91
2016-06-09T03:02:55.186Z,20.77
2016-06-09T03:03:55.236Z,20.92
2016-06-09T03:04:55.301Z,20.89
2016-06-09T03:05:55.258Z,20.87
2016-06-09T03:06:55.292Z,20.88
2016-06-09T03:07:55.310Z,20.87
2016-06-09T03:08:55.346Z,20.88
2016-06-09T03:09:55.364Z,20.87
2016-06-09T03:10:55.397Z,20.87
2016-06-09T03:11:55.417Z,20.87
2016-06-09T03:12:55.451Z,20.89
2016-06-09T03:13:55.470Z,20.88
2016-06-09T03:14:55.503Z,20.8
2016-06-09T03:15:55.523Z,20.87
2016-06-09T03:16:55.557Z,20.88
2016-06-09T03:17:55.576Z,20.87
2016-06-09T03:18:55.594Z,20.88
2016-06-09T03:19:55.691Z,20.87
2016-06-09T03:20:55.647Z,20.88
2016-06-09T03:21:55.681Z,20.88
2016-06-09T03:22:55.700Z,20.88
2016-06-09T03:23:55.734Z,20.82
2016-06-09T03:24:55.769Z,20.94
2016-06-09T03:25:55.788Z,20.92
2016-06-09T03:26:55.807Z,20.89
2016-06-09T03:27:55.840Z,20.95
2016-06-09T03:28:55.860Z,20.94
2016-06-09T03:29:55.894Z,21.06
2016-06-09T03:30:55.913Z,21.06
2016-06-09T03:31:55.962Z,20.97
2016-06-09T03:32:55.966Z,21.06
2016-06-09T03:33:56.000Z,21.01
2016-06-09T03:34:55.862Z,20.98
2016-06-09T03:35:56.054Z,20.92
2016-06-09T03:36:56.072Z,21.01
2016-06-09T03:37:56.090Z,21.06
2016-06-09T03:38:56.125Z,20.99
2016-06-09T03:39:56.144Z,20.97
2016-06-09T03:40:56.194Z,20.97
2016-06-09T03:41:56.196Z,20.82
2016-06-09T03:42:56.231Z,20.94
2016-06-09T03:43:56.249Z,20.82
2016-06-09T03:44:56.284Z,20.85
2016-06-09T03:45:56.334Z,20.88
2016-06-09T03:46:56.321Z,20.89
2016-06-09T03:47:56.355Z,20.94
2016-06-09T03:48:56.249Z,20.98
2016-06-09T03:49:56.800Z,21.06
2016-06-09T03:50:56.442Z,20.95
2016-06-09T03:51:56.461Z,20.94
2016-06-09T03:52:56.496Z,20.99
2016-06-09T03:53:56.515Z,21.03
2016-06-09T03:54:56.548Z,20.98
2016-06-09T03:55:56.568Z,20.92
2016-06-09T03:56:56.602Z,20.87
2016-06-09T03:57:56.636Z,20.94
2016-06-09T03:58:56.483Z,20.98
2016-06-09T03:59:56.689Z,20.87
2016-06-09T04:00:56.708Z,20.92
2016-06-09T04:01:56.726Z,20.98
2016-06-09T04:02:56.762Z,21.04
2016-06-09T04:03:56.796Z,21.13
2016-06-09T04:04:57.204Z,21.1
2016-06-09T04:05:56.833Z,21.09
2016-06-09T04:06:56.695Z,21.04
2016-06-09T04:07:56.886Z,21.1
2016-06-09T04:08:56.904Z,21.13
2016-06-09T04:09:56.939Z,21.07
2016-06-09T04:10:56.957Z,21.07
2016-06-09T04:11:56.992Z,20.91
2016-06-09T04:12:57.010Z,20.87
2016-06-09T04:13:57.045Z,20.79
2016-06-09T04:14:57.063Z,20.79
2016-06-09T04:15:56.942Z,20.88
2016-06-09T04:16:57.133Z,20.91
2016-06-09T04:17:57.150Z,20.92
2016-06-09T04:18:57.169Z,21.03
2016-06-09T04:19:57.204Z,21.06
2016-06-09T04:20:57.238Z,21.04
2016-06-09T04:21:57.256Z,20.95
2016-06-09T04:22:57.276Z,20.99
2016-06-09T04:23:57.310Z,21.01
2016-06-09T04:24:57.329Z,20.99
2016-06-09T04:25:57.363Z,21.01
2016-06-09T04:26:57.397Z,20.95
2016-06-09T04:27:57.416Z,21.04
2016-06-09T04:28:57.434Z,21.07
2016-06-09T04:29:57.454Z,20.94
2016-06-09T04:30:57.488Z,21.01
2016-06-09T04:31:57.507Z,20.99
2016-06-09T04:32:57.540Z,20.97
2016-06-09T04:33:57.560Z,21.19
2016-06-09T04:34:58.297Z,21.07
2016-06-09T04:35:57.612Z,21.04
2016-06-09T04:36:57.647Z,21.07
2016-06-09T04:37:57.665Z,21.07
2016-06-09T04:38:57.715Z,21.06
2016-06-09T04:39:57.718Z,21.04
2016-06-09T04:40:57.612Z,21.13
2016-06-09T04:41:57.787Z,21.06
2016-06-09T04:42:57.805Z,20.99
2016-06-09T04:43:57.825Z,21.1
2016-06-09T04:44:57.858Z,21.14
2016-06-09T04:45:57.877Z,21.13
2016-06-09T04:46:57.912Z,21.28
2016-06-09T04:47:57.931Z,21.29
2016-06-09T04:48:57.948Z,21.16
2016-06-09T04:49:58.015Z,21.28
2016-06-09T04:50:58.018Z,21.12
2016-06-09T04:51:58.037Z,21.24
2016-06-09T04:52:58.102Z,21.31
2016-06-09T04:53:58.089Z,21.31
2016-06-09T04:54:57.967Z,21.46
2016-06-09T04:55:58.158Z,21.42
2016-06-09T04:56:58.177Z,21.46
2016-06-09T04:57:58.196Z,21.52
2016-06-09T04:58:58.230Z,21.58
2016-06-09T04:59:58.248Z,21.62
2016-06-09T05:00:58.283Z,21.65
2016-06-09T05:01:58.318Z,21.67
2016-06-09T05:02:58.321Z,21.67
2016-06-09T05:03:58.355Z,21.64
2016-06-09T05:04:58.232Z,21.67
2016-06-09T05:05:58.408Z,21.72
2016-06-09T05:06:58.426Z,21.71
2016-06-09T05:07:58.476Z,21.77
2016-06-09T05:08:58.480Z,21.77
2016-06-09T05:09:58.513Z,21.8
2016-06-09T05:10:58.532Z,21.82
2016-06-09T05:11:58.411Z,21.8
2016-06-09T05:12:58.586Z,21.84
2016-06-09T05:13:58.619Z,21.96
2016-06-09T05:14:58.654Z,21.98
2016-06-09T05:15:58.673Z,22.05
2016-06-09T05:16:58.692Z,22.07
2016-06-09T05:17:58.726Z,22.24
2016-06-09T05:18:58.745Z,22.37
2016-06-09T05:19:59.279Z,22.68
2016-06-09T05:20:58.813Z,23.2
2016-06-09T05:21:58.847Z,23.55
2016-06-09T05:22:58.850Z,23.9
2016-06-09T05:23:58.900Z,23.97
2016-06-09T05:24:58.903Z,24.18
2016-06-09T05:25:58.782Z,24.21
2016-06-09T05:26:59.004Z,24.18
2016-06-09T05:27:59.007Z,24.39
2016-06-09T05:28:59.040Z,24.49
2016-06-09T05:29:59.044Z,24.46
2016-06-09T05:30:59.078Z,24.49
2016-06-09T05:31:59.097Z,24.31
2016-06-09T05:32:59.131Z,24.32
2016-06-09T05:33:59.166Z,24.13
2016-06-09T05:34:59.356Z,24
2016-06-09T05:35:59.219Z,24.13
2016-06-09T05:36:59.237Z,23.97
2016-06-09T05:37:59.271Z,23.94
2016-06-09T05:38:59.306Z,23.84
2016-06-09T05:39:59.325Z,23.83
2016-06-09T05:40:59.359Z,23.8
2016-06-09T05:41:59.378Z,23.85
2016-06-09T05:42:59.412Z,23.8
2016-06-09T05:43:59.446Z,23.94
2016-06-09T05:44:59.465Z,23.87
2016-06-09T05:45:59.483Z,23.88
2016-06-09T05:46:59.518Z,23.9
2016-06-09T05:47:59.552Z,23.87
2016-06-09T05:48:59.571Z,23.79
2016-06-09T05:50:00.465Z,23.85
2016-06-09T05:50:59.639Z,23.91
2016-06-09T05:51:59.658Z,23.94
2016-06-09T05:52:59.536Z,24.05
2016-06-09T05:53:59.727Z,24.02
2016-06-09T05:54:59.746Z,23.93
2016-06-09T05:55:59.765Z,23.93
2016-06-09T05:56:59.798Z,23.93
2016-06-09T05:57:59.833Z,23.91
2016-06-09T05:58:59.883Z,23.9
2016-06-09T05:59:59.886Z,23.8
2016-06-09T06:00:59.920Z,23.8
2016-06-09T06:01:59.956Z,23.72
2016-06-09T06:02:59.973Z,23.72
2016-06-09T06:04:00.009Z,23.7
2016-06-09T06:05:00.042Z,23.69
2016-06-09T06:06:00.060Z,23.72
2016-06-09T06:07:00.079Z,23.72
2016-06-09T06:08:00.113Z,23.69
2016-06-09T06:09:00.148Z,23.75
2016-06-09T06:10:00.183Z,24.32
2016-06-09T06:11:00.201Z,24.34
2016-06-09T06:12:00.236Z,24.34
2016-06-09T06:13:00.270Z,24.69
2016-06-09T06:14:00.304Z,25.38
2016-06-09T06:15:00.323Z,25.42
2016-06-09T06:16:00.357Z,25.55
2016-06-09T06:17:00.391Z,25.73
2016-06-09T06:18:00.410Z,25.92
2016-06-09T06:19:00.461Z,25.8
2016-06-09T06:20:00.886Z,25.5
2016-06-09T06:21:00.498Z,25.97
2016-06-09T06:22:00.517Z,26.37
2016-06-09T06:23:00.567Z,26.48
2016-06-09T06:24:00.585Z,25.67
2016-06-09T06:25:00.604Z,25.36
2016-06-09T06:26:00.638Z,25.18
2016-06-09T06:27:00.672Z,25.13
2016-06-09T06:28:00.535Z,25.09
2016-06-09T06:29:00.725Z,25.21
2016-06-09T06:30:00.760Z,25.55
2016-06-09T06:31:00.825Z,26.45
2016-06-09T06:32:00.656Z,26.77
2016-06-09T06:33:00.831Z,26.66
2016-06-09T06:34:00.866Z,26.01
2016-06-09T06:35:01.353Z,25.77
2016-06-09T06:36:00.935Z,25.76
2016-06-09T06:37:00.953Z,26.09
2016-06-09T06:38:00.988Z,25.97
2016-06-09T06:39:01.037Z,25.8
2016-06-09T06:40:01.040Z,25.67
2016-06-09T06:41:01.075Z,25.75
2016-06-09T06:42:01.109Z,26.06
2016-06-09T06:43:01.128Z,26.39
2016-06-09T06:44:01.178Z,27.19
2016-06-09T06:45:01.180Z,27.44
2016-06-09T06:46:01.215Z,27.82
2016-06-09T06:47:01.249Z,27.92
2016-06-09T06:48:01.284Z,27.36
2016-06-09T06:49:01.318Z,27.09
2016-06-09T06:50:02.165Z,26.66
2016-06-09T06:51:01.215Z,26.37
2016-06-09T06:52:01.389Z,26.1
2016-06-09T06:53:01.424Z,25.99
2016-06-09T06:54:01.458Z,25.87
2016-06-09T06:55:01.477Z,25.92
2016-06-09T06:56:01.511Z,25.87
2016-06-09T06:57:01.546Z,25.82
2016-06-09T06:58:00.830Z,25.79
2016-06-09T06:59:01.631Z,25.73
2016-06-09T07:00:01.477Z,25.7
2016-06-09T07:01:01.667Z,25.64
2016-06-09T07:02:01.686Z,25.6
2016-06-09T07:03:01.721Z,25.72
2016-06-09T07:04:01.755Z,25.72
2016-06-09T07:05:01.866Z,25.73
2016-06-09T07:06:01.699Z,26.12
2016-06-09T07:07:01.842Z,26.52
2016-06-09T07:08:01.861Z,27.14
2016-06-09T07:09:01.895Z,27.49
2016-06-09T07:10:01.929Z,27.79
2016-06-09T07:11:01.965Z,27.87
2016-06-09T07:12:01.982Z,27.43
2016-06-09T07:13:02.016Z,26.77
2016-06-09T07:14:02.051Z,26.99
2016-06-09T07:15:02.086Z,27.57
2016-06-09T07:16:02.104Z,27.9
2016-06-09T07:17:02.139Z,28.22
2016-06-09T07:18:02.172Z,28.39
2016-06-09T07:19:02.254Z,28.51
2016-06-09T07:20:02.351Z,28.59
2016-06-09T07:21:02.541Z,28.61
2016-06-09T07:22:02.544Z,28.49
2016-06-09T07:23:02.344Z,28.64
2016-06-09T07:24:02.347Z,28.3
2016-06-09T07:25:02.382Z,27.81
2016-06-09T07:26:02.495Z,27.63
2016-06-09T07:27:02.451Z,27.88
2016-06-09T07:28:02.470Z,27.39
2016-06-09T07:29:02.503Z,27.21
2016-06-09T07:30:02.523Z,27.04
2016-06-09T07:31:02.619Z,26.99
2016-06-09T07:32:02.716Z,27.28
2016-06-09T07:33:02.625Z,27.74
2016-06-09T07:34:02.690Z,27.34
2016-06-09T07:35:02.834Z,27.24
2016-06-09T07:36:02.572Z,27.12
2016-06-09T07:37:02.762Z,27.21
2016-06-09T07:38:02.765Z,27.85
2016-06-09T07:39:02.800Z,28.3
2016-06-09T07:40:02.834Z,28.64
2016-06-09T07:41:02.868Z,28.74
2016-06-09T07:42:02.730Z,28.86
2016-06-09T07:43:02.797Z,28.83
2016-06-09T07:44:02.955Z,29
2016-06-09T07:45:02.834Z,29.04
2016-06-09T07:46:03.025Z,29.14
2016-06-09T07:47:03.043Z,29.14
2016-06-09T07:48:02.921Z,29.11
2016-06-09T07:49:03.112Z,29.21
2016-06-09T07:50:03.552Z,29.16
2016-06-09T07:51:03.540Z,29.15
2016-06-09T07:52:03.200Z,29.26
2016-06-09T07:53:03.233Z,29.27
2016-06-09T07:54:03.267Z,29.34
2016-06-09T07:55:03.302Z,29.41
2016-06-09T07:56:03.337Z,29.36
2016-06-09T07:57:03.356Z,29.42
2016-06-09T07:58:03.390Z,29.39
2016-06-09T07:59:03.423Z,29.51
2016-06-09T08:00:03.458Z,29.57
2016-06-09T08:01:03.477Z,29.63
2016-06-09T08:02:03.511Z,29.6
2016-06-09T08:03:03.389Z,29.71
2016-06-09T08:04:03.580Z,29.79
2016-06-09T08:05:03.676Z,29.79
2016-06-09T08:06:03.680Z,29.85
2016-06-09T08:07:03.682Z,29.9
2016-06-09T08:08:03.702Z,29.98
2016-06-09T08:09:03.752Z,29.92
2016-06-09T08:10:03.770Z,29.87
2016-06-09T08:11:03.649Z,29.94
2016-06-09T08:12:03.839Z,29.97
2016-06-09T08:13:03.716Z,30.02
2016-06-09T08:14:03.892Z,29.95
2016-06-09T08:15:03.925Z,29.83
2016-06-09T08:16:03.945Z,29.98
2016-06-09T08:17:03.979Z,29.97
2016-06-09T08:18:04.013Z,29.85
2016-06-09T08:19:04.048Z,29.92
2016-06-09T08:20:04.223Z,30.15
2016-06-09T08:21:04.491Z,29.89
2016-06-09T08:22:04.151Z,29.86
2016-06-09T08:23:04.013Z,29.51
2016-06-09T08:24:04.220Z,29.43
2016-06-09T08:25:04.240Z,29.6
2016-06-09T08:26:04.301Z,29.63
2016-06-09T08:27:04.394Z,29.68
2016-06-09T08:28:04.298Z,29.7
2016-06-09T08:29:04.533Z,29.53
2016-06-09T08:30:04.608Z,29.41
2016-06-09T08:31:04.657Z,29.18
2016-06-09T08:32:04.692Z,29
2016-06-09T08:33:04.741Z,28.85
2016-06-09T08:34:04.790Z,28.7
2016-06-09T08:35:04.840Z,28.64
2016-06-09T08:36:04.739Z,28.62
2016-06-09T08:37:04.905Z,28.68
2016-06-09T08:38:04.959Z,28.59
2016-06-09T08:39:04.983Z,28.49
2016-06-09T08:40:05.022Z,28.4
2016-06-09T08:41:05.043Z,28.39
2016-06-09T08:42:05.080Z,28.37
2016-06-09T08:43:05.116Z,28.27
2016-06-09T08:44:05.153Z,28.19
2016-06-09T08:45:05.172Z,28.11
2016-06-09T08:46:05.208Z,28.03
2016-06-09T08:47:05.243Z,28.06
2016-06-09T08:48:05.262Z,28.04
2016-06-09T08:49:05.298Z,27.84
2016-06-09T08:50:05.333Z,27.81
2016-06-09T08:51:05.930Z,27.84
2016-06-09T08:52:05.401Z,27.77
2016-06-09T08:53:05.437Z,27.66
2016-06-09T08:54:05.472Z,27.62
2016-06-09T08:55:05.491Z,27.55
2016-06-09T08:56:05.510Z,27.47
2016-06-09T08:57:05.543Z,27.34
2016-06-09T08:58:05.579Z,27.32
2016-06-09T08:59:05.613Z,27.31
2016-06-09T09:00:05.646Z,27.22
2016-06-09T09:01:05.680Z,27.09
2016-06-09T09:02:05.699Z,27.21
2016-06-09T09:03:05.733Z,27.1
2016-06-09T09:04:05.752Z,27.03
2016-06-09T09:05:06.506Z,26.94
2016-06-09T09:06:05.665Z,26.82
2016-06-09T09:07:05.856Z,26.8
2016-06-09T09:08:05.890Z,26.73
2016-06-09T09:09:05.909Z,26.7
2016-06-09T09:10:05.943Z,26.69
2016-06-09T09:11:05.978Z,26.52
2016-06-09T09:12:05.996Z,26.43
2016-06-09T09:13:06.031Z,26.39
2016-06-09T09:14:06.065Z,26.36
2016-06-09T09:15:06.099Z,26.28
2016-06-09T09:16:06.133Z,26.28
2016-06-09T09:17:06.152Z,26.26
2016-06-09T09:18:06.202Z,26.18
2016-06-09T09:19:06.236Z,26.06
2016-06-09T09:20:06.349Z,26.15
2016-06-09T09:21:06.133Z,26.1
2016-06-09T09:22:06.308Z,26.07
2016-06-09T09:23:06.342Z,25.99
2016-06-09T09:24:06.392Z,25.91
2016-06-09T09:25:06.395Z,25.77
2016-06-09T09:26:06.445Z,25.82
2016-06-09T09:27:06.464Z,25.79
2016-06-09T09:28:06.499Z,25.73
2016-06-09T09:29:06.516Z,25.73
2016-06-09T09:30:06.551Z,25.67
2016-06-09T09:31:06.586Z,25.61
2016-06-09T09:32:06.604Z,25.52
2016-06-09T09:33:06.638Z,25.58
2016-06-09T09:34:06.673Z,25.54
2016-06-09T09:35:07.442Z,25.5
2016-06-09T09:36:06.742Z,25.5
2016-06-09T09:37:06.760Z,25.43
2016-06-09T09:38:06.780Z,25.4
2016-06-09T09:39:06.813Z,25.38
2016-06-09T09:40:06.691Z,25.4
2016-06-09T09:41:06.882Z,25.38
2016-06-09T09:42:06.901Z,25.27
2016-06-09T09:43:06.934Z,25.24
2016-06-09T09:44:06.970Z,25.2
2016-06-09T09:45:06.988Z,25.23
2016-06-09T09:46:07.038Z,25.08
2016-06-09T09:47:07.057Z,25.2
2016-06-09T09:48:07.090Z,25.09
2016-06-09T09:49:07.125Z,25.06
2016-06-09T09:50:08.941Z,25.03
2016-06-09T09:51:07.320Z,24.98
2016-06-09T09:52:07.213Z,24.96
2016-06-09T09:53:07.231Z,24.9
2016-06-09T09:54:07.265Z,24.88
2016-06-09T09:55:07.301Z,24.95
2016-06-09T09:56:07.335Z,24.88
2016-06-09T09:57:07.352Z,24.87
2016-06-09T09:58:07.388Z,24.8
2016-06-09T09:59:07.405Z,24.77
2016-06-09T10:00:07.441Z,24.77
2016-06-09T10:01:07.475Z,24.62
2016-06-09T10:02:07.509Z,24.67
2016-06-09T10:03:07.528Z,24.71
2016-06-09T10:04:07.562Z,24.69
2016-06-09T10:05:07.596Z,24.57
2016-06-09T10:06:07.646Z,24.62
2016-06-09T10:07:07.493Z,24.6
2016-06-09T10:08:07.683Z,24.6
2016-06-09T10:09:07.703Z,24.58
2016-06-09T10:10:07.580Z,24.61
2016-06-09T10:11:07.803Z,24.52
2016-06-09T10:12:07.806Z,24.46
2016-06-09T10:13:07.824Z,24.55
2016-06-09T10:14:07.859Z,24.47
2016-06-09T10:15:07.893Z,24.49
2016-06-09T10:16:07.927Z,24.43
2016-06-09T10:17:07.961Z,24.4
2016-06-09T10:18:07.980Z,24.4
2016-06-09T10:19:08.030Z,24.4
2016-06-09T10:20:08.048Z,24.39
2016-06-09T10:21:08.412Z,24.39
2016-06-09T10:22:08.101Z,24.4
2016-06-09T10:23:08.121Z,24.37
2016-06-09T10:24:08.155Z,24.32
2016-06-09T10:25:08.204Z,24.32
2016-06-09T10:26:08.207Z,24.3
2016-06-09T10:27:08.242Z,24.28
2016-06-09T10:28:08.136Z,24.25
2016-06-09T10:29:08.311Z,24.25
2016-06-09T10:30:08.345Z,24.3
2016-06-09T10:31:08.365Z,24.32
2016-06-09T10:32:08.382Z,24.32
2016-06-09T10:33:08.417Z,24.21
2016-06-09T10:34:08.451Z,24.27
2016-06-09T10:35:08.329Z,24.24
2016-06-09T10:36:09.552Z,24.21
2016-06-09T10:37:08.382Z,24.21
2016-06-09T10:38:08.416Z,24.15
2016-06-09T10:39:08.606Z,24.13
2016-06-09T10:40:08.642Z,24.21
2016-06-09T10:41:08.692Z,24.13
2016-06-09T10:42:08.695Z,24.16
2016-06-09T10:43:08.729Z,24.13
2016-06-09T10:44:08.763Z,24.15
2016-06-09T10:45:08.797Z,24.1
2016-06-09T10:46:08.801Z,24.1
2016-06-09T10:47:08.835Z,24.09
2016-06-09T10:48:08.869Z,24.09
2016-06-09T10:49:08.888Z,24.09
2016-06-09T10:50:08.922Z,24.09
2016-06-09T10:51:09.207Z,24.02
2016-06-09T10:52:09.007Z,24.05
2016-06-09T10:53:09.010Z,24.08
2016-06-09T10:54:09.044Z,24.05
2016-06-09T10:55:09.093Z,24.08
2016-06-09T10:56:09.097Z,24.02
2016-06-09T10:57:09.131Z,23.97
2016-06-09T10:58:09.025Z,24
2016-06-09T10:59:09.200Z,23.98
2016-06-09T11:00:09.219Z,24.02
2016-06-09T11:01:25.112Z,24
2016-06-09T11:02:09.272Z,23.98
2016-06-09T11:03:09.321Z,23.95
2016-06-09T11:04:09.341Z,23.95
2016-06-09T11:05:09.359Z,23.93
2016-06-09T11:06:09.721Z,23.91
2016-06-09T11:07:10.193Z,23.95
2016-06-09T11:08:09.462Z,23.9
2016-06-09T11:09:09.481Z,23.9
2016-06-09T11:10:09.515Z,23.91
2016-06-09T11:11:09.393Z,23.8
2016-06-09T11:12:09.583Z,23.85
2016-06-09T11:13:09.602Z,23.87
2016-06-09T11:14:09.621Z,23.83
2016-06-09T11:15:09.717Z,23.88
2016-06-09T11:16:09.689Z,23.88
2016-06-09T11:17:09.708Z,23.83
2016-06-09T11:18:09.758Z,23.83
2016-06-09T11:19:09.793Z,23.79
2016-06-09T11:20:09.795Z,23.91
2016-06-09T11:21:10.424Z,23.84
2016-06-09T11:22:10.052Z,23.84
2016-06-09T11:23:09.899Z,23.8
2016-06-09T11:24:17.464Z,23.87
2016-06-09T11:25:09.858Z,23.85
2016-06-09T11:26:09.986Z,23.85
2016-06-09T11:27:10.004Z,23.84
2016-06-09T11:28:10.040Z,23.79
2016-06-09T11:29:10.057Z,23.8
2016-06-09T11:30:10.093Z,23.85
2016-06-09T11:31:10.126Z,23.79
2016-06-09T11:32:10.191Z,23.75
2016-06-09T11:33:10.180Z,23.84
2016-06-09T11:34:10.214Z,23.84
2016-06-09T11:35:10.232Z,23.9
2016-06-09T11:36:10.267Z,23.78
2016-06-09T11:37:10.973Z,23.88
2016-06-09T11:38:10.351Z,23.84
2016-06-09T11:39:10.385Z,23.83
2016-06-09T11:40:10.388Z,23.85
2016-06-09T11:41:10.423Z,23.83
2016-06-09T11:42:10.441Z,23.84
2016-06-09T11:43:10.476Z,23.8
2016-06-09T11:44:10.511Z,23.91
2016-06-09T11:45:10.529Z,23.88
2016-06-09T11:46:10.563Z,23.85
2016-06-09T11:47:10.301Z,23.91
2016-06-09T11:48:10.632Z,23.84
2016-06-09T11:49:10.650Z,23.83
2016-06-09T11:50:10.685Z,23.79
2016-06-09T11:51:10.563Z,23.85
2016-06-09T11:52:11.144Z,23.75
2016-06-09T11:53:10.772Z,23.85
2016-06-09T11:54:10.792Z,23.87
2016-06-09T11:55:10.840Z,23.87
2016-06-09T11:56:10.844Z,23.84
2016-06-09T11:57:10.893Z,23.83
2016-06-09T11:58:10.913Z,23.79
2016-06-09T11:59:10.947Z,23.8
2016-06-09T12:00:10.965Z,23.79
2016-06-09T12:01:11.000Z,23.84
2016-06-09T12:02:11.034Z,23.87
2016-06-09T12:03:11.053Z,23.9
2016-06-09T12:04:11.087Z,23.73
2016-06-09T12:05:11.121Z,23.84
2016-06-09T12:06:11.718Z,23.87
2016-06-09T12:07:11.549Z,23.85
2016-06-09T12:08:11.209Z,23.88
2016-06-09T12:09:11.243Z,23.88
2016-06-09T12:10:11.261Z,23.88
2016-06-09T12:11:11.297Z,23.91
2016-06-09T12:12:11.314Z,23.85
2016-06-09T12:13:11.349Z,23.9
2016-06-09T12:14:11.383Z,23.88
2016-06-09T12:15:11.418Z,23.79
2016-06-09T12:16:11.437Z,23.88
2016-06-09T12:17:11.471Z,23.79
2016-06-09T12:18:11.505Z,23.75
2016-06-09T12:19:11.539Z,23.9
2016-06-09T12:20:11.558Z,23.84
2016-06-09T12:21:11.905Z,23.84
2016-06-09T12:22:11.611Z,23.78
2016-06-09T12:23:11.645Z,23.78
2016-06-09T12:24:11.665Z,23.84
2016-06-09T12:25:11.698Z,23.87
2016-06-09T12:26:11.733Z,23.88
2016-06-09T12:27:11.752Z,23.76
2016-06-09T12:28:11.785Z,23.76
2016-06-09T12:29:11.820Z,23.76
2016-06-09T12:30:11.855Z,23.79
2016-06-09T12:31:11.889Z,23.85
2016-06-09T12:32:11.908Z,23.76
2016-06-09T12:33:11.942Z,23.85
2016-06-09T12:34:11.804Z,23.9
2016-06-09T12:35:12.010Z,23.85
2016-06-09T12:36:12.999Z,23.88
2016-06-09T12:37:13.205Z,23.8
2016-06-09T12:38:12.083Z,23.87
2016-06-09T12:39:12.116Z,23.91
2016-06-09T12:40:12.135Z,23.91
2016-06-09T12:41:12.186Z,23.91
2016-06-09T12:42:12.204Z,23.85
2016-06-09T12:43:12.223Z,23.78
2016-06-09T12:44:12.257Z,23.87
2016-06-09T12:45:12.291Z,23.78
2016-06-09T12:46:12.310Z,23.87
2016-06-09T12:47:12.188Z,23.79
2016-06-09T12:48:12.378Z,23.84
2016-06-09T12:49:12.397Z,23.84
2016-06-09T12:50:12.448Z,23.83
2016-06-09T12:51:13.060Z,23.85
2016-06-09T12:52:12.344Z,23.84
2016-06-09T12:53:12.518Z,23.85
2016-06-09T12:54:12.537Z,23.85
2016-06-09T12:55:12.572Z,23.91
2016-06-09T12:56:12.621Z,23.84